^^
MeteoGriva-Weather Station Historical Data
Daily Summary for August 04, 2020 Units:  Both    English   Metric
Daily Weekly Monthly Yearly Custom
  High: Low: Average:
Temperature: 84.7 °F /  29.3 °C 68.7 °F /  20.4 °C 75.7 °F /  24.3 °C
Dew Point: 78.3 °F /  25.7 °C 65.1 °F /  18.4 °C 72.1 °F /  22.3 °C
Humidity: 99% 80.2% 89%
Wind Speed: 7.8mph /  12.6km/h - 2.7mph /  4.3km/h
Wind Gust: 17.4mph /  28km/h - -
Wind- - South
Pressure: 29.8 in /  1008.1 hPa 0 in /  0.0 hPa -
Precipitation: 0 in /  0.0 mm    
Historical Graphs
 
 
Tabular Data for August 04, 2020
Time Temperature Dew Point Pressure Wind Wind Speed Wind Gust Humidity Rainfall Rate (Hourly) solar
00:04 72.9 °F /  22.7 °C 67.1 °F /  19.5 °C 29.8in /  1007.5hPa SSW 4.9mph /  7.9km/h 12.5mph /  20.1km/h 82% 0in /  0.0mm 0 W/m2
00:09 72.9 °F /  22.7 °C 67.1 °F /  19.5 °C 29.8in /  1007.5hPa South 5.1mph /  8.2km/h 12.5mph /  20.1km/h 82% 0in /  0.0mm 0 W/m2
00:14 72.9 °F /  22.7 °C 67.1 °F /  19.5 °C 29.8in /  1007.5hPa SSW 4.7mph /  7.5km/h 12.5mph /  20.1km/h 82% 0in /  0.0mm 0 W/m2
00:19 72.9 °F /  22.7 °C 67.1 °F /  19.5 °C 29.8in /  1007.5hPa South 4.2mph /  6.7km/h 10.1mph /  16.3km/h 82% 0in /  0.0mm 0 W/m2
00:24 72.9 °F /  22.7 °C 67.1 °F /  19.5 °C 29.8in /  1007.5hPa South 5.2mph /  8.3km/h 10.1mph /  16.3km/h 82% 0in /  0.0mm 0 W/m2
00:29 72.9 °F /  22.7 °C 67.1 °F /  19.5 °C 29.8in /  1007.5hPa South 5.3mph /  8.5km/h 10.1mph /  16.3km/h 81.8% 0in /  0.0mm 0 W/m2
00:34 72.9 °F /  22.7 °C 67.1 °F /  19.5 °C 29.8in /  1007.5hPa South 3.1mph /  5km/h 7.6mph /  12.2km/h 81.9% 0in /  0.0mm 0 W/m2
00:39 72.7 °F /  22.6 °C 66.9 °F /  19.4 °C 29.8in /  1007.5hPa South 4.1mph /  6.6km/h 10.1mph /  16.3km/h 82% 0in /  0.0mm 0 W/m2
00:44 72.7 °F /  22.6 °C 66.7 °F /  19.3 °C 29.8in /  1007.5hPa South 3.5mph /  5.6km/h 10.1mph /  16.3km/h 82% 0in /  0.0mm 0 W/m2
00:49 72.7 °F /  22.6 °C 67.1 °F /  19.5 °C 29.8in /  1007.5hPa South 3mph /  4.9km/h 10.1mph /  16.3km/h 82.8% 0in /  0.0mm 0 W/m2
00:54 72.5 °F /  22.5 °C 67.3 °F /  19.6 °C 29.8in /  1007.5hPa South 3.9mph /  6.3km/h 10.1mph /  16.3km/h 83.3% 0in /  0.0mm 0 W/m2
00:59 72.5 °F /  22.5 °C 67.8 °F /  19.9 °C 29.8in /  1007.5hPa South 2.2mph /  3.6km/h 7.6mph /  12.2km/h 84.8% 0in /  0.0mm 0 W/m2
01:04 72.3 °F /  22.4 °C 67.8 °F /  19.9 °C 29.8in /  1007.8hPa South 1.9mph /  3km/h 7.6mph /  12.2km/h 85.9% 0in /  0.0mm 0 W/m2
01:09 72.3 °F /  22.4 °C 67.8 °F /  19.9 °C 29.8in /  1007.8hPa South 3.1mph /  5km/h 7.6mph /  12.2km/h 86.1% 0in /  0.0mm 0 W/m2
01:14 72.1 °F /  22.3 °C 68.2 °F /  20.1 °C 29.8in /  1007.5hPa South 3.3mph /  5.3km/h 7.6mph /  12.2km/h 87% 0in /  0.0mm 0 W/m2
01:19 72.1 °F /  22.3 °C 68 °F /  20 °C 29.8in /  1007.5hPa South 3.7mph /  5.9km/h 7.6mph /  12.2km/h 87.1% 0in /  0.0mm 0 W/m2
01:24 71.8 °F /  22.1 °C 68 °F /  20 °C 29.8in /  1007.5hPa South 3.3mph /  5.3km/h 10.1mph /  16.3km/h 87.7% 0in /  0.0mm 0 W/m2
01:29 71.8 °F /  22.1 °C 68 °F /  20 °C 29.8in /  1007.5hPa South 2.6mph /  4.2km/h 7.6mph /  12.2km/h 88% 0in /  0.0mm 0 W/m2
01:34 71.8 °F /  22.1 °C 68 °F /  20 °C 29.8in /  1007.5hPa South 3mph /  4.9km/h 10.1mph /  16.3km/h 87.8% 0in /  0.0mm 0 W/m2
01:39 71.8 °F /  22.1 °C 67.8 °F /  19.9 °C 29.8in /  1007.5hPa South 2.2mph /  3.6km/h 7.6mph /  12.2km/h 87.4% 0in /  0.0mm 0 W/m2
01:44 71.6 °F /  22 °C 67.8 °F /  19.9 °C 29.8in /  1007.5hPa South 3.7mph /  5.9km/h 7.6mph /  12.2km/h 88% 0in /  0.0mm 0 W/m2
01:49 71.6 °F /  22 °C 67.8 °F /  19.9 °C 29.8in /  1007.5hPa South 3.7mph /  6km/h 10.1mph /  16.3km/h 88% 0in /  0.0mm 0 W/m2
01:54 71.6 °F /  22 °C 67.5 °F /  19.7 °C 29.8in /  1007.5hPa SSE 2.5mph /  4km/h 10.1mph /  16.3km/h 87.2% 0in /  0.0mm 0 W/m2
01:59 71.6 °F /  22 °C 67.1 °F /  19.5 °C 29.8in /  1007.5hPa South 3.9mph /  6.3km/h 10.1mph /  16.3km/h 85.6% 0in /  0.0mm 0 W/m2
02:04 72.1 °F /  22.3 °C 67.1 °F /  19.5 °C 29.8in /  1007.5hPa South 3.5mph /  5.7km/h 12.5mph /  20.1km/h 84% 0in /  0.0mm 0 W/m2
02:09 72 °F /  22.2 °C 66.9 °F /  19.4 °C 29.8in /  1007.5hPa SSW 4.2mph /  6.8km/h 12.5mph /  20.1km/h 83.7% 0in /  0.0mm 0 W/m2
02:14 72.1 °F /  22.3 °C 66.9 °F /  19.4 °C 29.8in /  1007.5hPa South 2.8mph /  4.5km/h 7.6mph /  12.2km/h 83.6% 0in /  0.0mm 0 W/m2
02:19 72.1 °F /  22.3 °C 67.1 °F /  19.5 °C 29.8in /  1007.5hPa South 2.3mph /  3.7km/h 7.6mph /  12.2km/h 84% 0in /  0.0mm 0 W/m2
02:24 72 °F /  22.2 °C 66.7 °F /  19.3 °C 29.8in /  1007.5hPa South 4.7mph /  7.6km/h 10.1mph /  16.3km/h 83.4% 0in /  0.0mm 0 W/m2
02:29 72 °F /  22.2 °C 66.7 °F /  19.3 °C 29.8in /  1007.5hPa SSW 2.2mph /  3.6km/h 10.1mph /  16.3km/h 83.3% 0in /  0.0mm 0 W/m2
02:34 72 °F /  22.2 °C 66.7 °F /  19.3 °C 29.8in /  1007.5hPa South 3mph /  4.9km/h 10.1mph /  16.3km/h 83.6% 0in /  0.0mm 0 W/m2
02:39 72 °F /  22.2 °C 66.7 °F /  19.3 °C 29.8in /  1007.5hPa South 1.7mph /  2.7km/h 7.6mph /  12.2km/h 83.6% 0in /  0.0mm 0 W/m2
02:44 72.1 °F /  22.3 °C 66.7 °F /  19.3 °C 29.8in /  1007.5hPa South 3.2mph /  5.2km/h 7.6mph /  12.2km/h 83% 0in /  0.0mm 0 W/m2
02:49 72.1 °F /  22.3 °C 66.6 °F /  19.2 °C 29.8in /  1007.5hPa South 2.7mph /  4.4km/h 7.6mph /  12.2km/h 82.8% 0in /  0.0mm 0 W/m2
02:54 72.1 °F /  22.3 °C 66.4 °F /  19.1 °C 29.8in /  1007.5hPa South 3mph /  4.8km/h 7.6mph /  12.2km/h 82.2% 0in /  0.0mm 0 W/m2
02:59 72.1 °F /  22.3 °C 66.4 °F /  19.1 °C 29.8in /  1007.5hPa South 3mph /  4.8km/h 7.6mph /  12.2km/h 82% 0in /  0.0mm 0 W/m2
03:04 72.1 °F /  22.3 °C 66.4 °F /  19.1 °C 29.8in /  1007.5hPa South 4mph /  6.5km/h 10.1mph /  16.3km/h 82% 0in /  0.0mm 0 W/m2
03:09 72.1 °F /  22.3 °C 66 °F /  18.9 °C 29.8in /  1007.5hPa South 1mph /  1.6km/h 10.1mph /  16.3km/h 81.1% 0in /  0.0mm 0 W/m2
03:14 72.1 °F /  22.3 °C 66.2 °F /  19 °C 29.8in /  1007.5hPa South 0.6mph /  0.9km/h 7.6mph /  12.2km/h 81.3% 0in /  0.0mm 0 W/m2
03:19 72 °F /  22.2 °C 66.2 °F /  19 °C 29.8in /  1007.5hPa South 0.9mph /  1.4km/h 4.9mph /  7.9km/h 81.8% 0in /  0.0mm 0 W/m2
03:24 72 °F /  22.2 °C 66 °F /  18.9 °C 29.8in /  1007.5hPa SSE 0.6mph /  0.9km/h 4.9mph /  7.9km/h 81.3% 0in /  0.0mm 0 W/m2
03:29 71.8 °F /  22.1 °C 66.4 °F /  19.1 °C 29.8in /  1007.5hPa South 0.1mph /  0.2km/h 2.5mph /  4km/h 82.7% 0in /  0.0mm 0 W/m2
03:34 71.8 °F /  22.1 °C 66.4 °F /  19.1 °C 29.8in /  1007.5hPa Calm     83% 0in /  0.0mm 0 W/m2
03:39 71.6 °F /  22 °C 66.4 °F /  19.1 °C 29.8in /  1007.5hPa SSW 0.1mph /  0.2km/h 2.5mph /  4km/h 83.1% 0in /  0.0mm 0 W/m2
03:44 71.4 °F /  21.9 °C 66 °F /  18.9 °C 29.8in /  1007.5hPa South 0.4mph /  0.7km/h 2.5mph /  4km/h 83% 0in /  0.0mm 0 W/m2
03:49 71.4 °F /  21.9 °C 66 °F /  18.9 °C 29.8in /  1007.5hPa Calm   4.9mph /  7.9km/h 83% 0in /  0.0mm 0 W/m2
03:54 71.4 °F /  21.9 °C 66 °F /  18.9 °C 29.8in /  1007.5hPa SE 0.2mph /  0.4km/h 4.9mph /  7.9km/h 83% 0in /  0.0mm 0 W/m2
03:59 71.4 °F /  21.9 °C 66 °F /  18.9 °C 29.8in /  1007.5hPa Calm   2.5mph /  4km/h 83% 0in /  0.0mm 0 W/m2
04:04 71.8 °F /  22.1 °C 66.4 °F /  19.1 °C 29.7in /  1007.1hPa Calm     83% 0in /  0.0mm 0 W/m2
04:09 71.8 °F /  22.1 °C 66.6 °F /  19.2 °C 29.7in /  1007.1hPa Calm     83.4% 0in /  0.0mm 0 W/m2
04:14 71.8 °F /  22.1 °C 66.4 °F /  19.1 °C 29.7in /  1007.1hPa Calm     83% 0in /  0.0mm 0 W/m2
04:19 71.6 °F /  22 °C 66.2 °F /  19 °C 29.7in /  1007.1hPa Calm     83% 0in /  0.0mm 0 W/m2
04:24 70.9 °F /  21.6 °C 66.6 °F /  19.2 °C 29.7in /  1007.1hPa Calm     86.4% 0in /  0.0mm 0 W/m2
04:29 70.7 °F /  21.5 °C 66.9 °F /  19.4 °C 29.7in /  1007.1hPa Calm     88% 0in /  0.0mm 0 W/m2
04:34 70.5 °F /  21.4 °C 66.9 °F /  19.4 °C 29.7in /  1007.1hPa Calm     88.7% 0in /  0.0mm 0 W/m2
04:39 70.3 °F /  21.3 °C 66.9 °F /  19.4 °C 29.7in /  1007.1hPa Calm     89% 0in /  0.0mm 0 W/m2
04:44 69.8 °F /  21 °C 66.2 °F /  19 °C 29.7in /  1007.1hPa Calm     88.6% 0in /  0.0mm 0 W/m2
04:49 69.6 °F /  20.9 °C 65.8 °F /  18.8 °C 29.7in /  1006.8hPa Calm     88% 0in /  0.0mm 0 W/m2
04:54 69.6 °F /  20.9 °C 65.7 °F /  18.7 °C 29.7in /  1006.8hPa Calm     86.7% 0in /  0.0mm 0 W/m2
04:59 69.6 °F /  20.9 °C 65.1 °F /  18.4 °C 29.7in /  1006.8hPa Calm     85.5% 0in /  0.0mm 0 W/m2
05:04 70.2 °F /  21.2 °C 65.3 °F /  18.5 °C 29.7in /  1006.8hPa Calm     84.6% 0in /  0.0mm 0 W/m2
05:09 70.2 °F /  21.2 °C 65.5 °F /  18.6 °C 29.7in /  1006.8hPa Calm     85.2% 0in /  0.0mm 0 W/m2
05:14 70.2 °F /  21.2 °C 65.8 °F /  18.8 °C 29.7in /  1006.8hPa Calm     86.1% 0in /  0.0mm 0 W/m2
05:19 70.2 °F /  21.2 °C 66 °F /  18.9 °C 29.7in /  1007.1hPa Calm     87% 0in /  0.0mm 0 W/m2
05:24 69.8 °F /  21 °C 66 °F /  18.9 °C 29.7in /  1006.8hPa Calm     87.8% 0in /  0.0mm 0 W/m2
05:29 69.6 °F /  20.9 °C 66.6 °F /  19.2 °C 29.7in /  1006.8hPa Calm     89.8% 0in /  0.0mm 0 W/m2
05:34 69.6 °F /  20.9 °C 66.9 °F /  19.4 °C 29.7in /  1006.8hPa Calm     91.2% 0in /  0.0mm 0 W/m2
05:39 69.6 °F /  20.9 °C 67.3 °F /  19.6 °C 29.7in /  1007.1hPa Calm     92% 0in /  0.0mm 0 W/m2
05:44 69.3 °F /  20.7 °C 67.1 °F /  19.5 °C 29.7in /  1007.1hPa Calm     93.1% 0in /  0.0mm 0 W/m2
05:49 69.1 °F /  20.6 °C 68 °F /  20 °C 29.7in /  1007.1hPa Calm     96.7% 0in /  0.0mm 0 W/m2
05:54 69.1 °F /  20.6 °C 68.4 °F /  20.2 °C 29.7in /  1007.1hPa Calm     97.7% 0in /  0.0mm 0 W/m2
05:59 69.1 °F /  20.6 °C 68.7 °F /  20.4 °C 29.7in /  1007.1hPa Calm     99% 0in /  0.0mm 0 W/m2
06:04 69.3 °F /  20.7 °C 68.9 °F /  20.5 °C 29.7in /  1007.1hPa Calm     99% 0in /  0.0mm 0 W/m2
06:09 69.3 °F /  20.7 °C 68.9 °F /  20.5 °C 29.7in /  1006.8hPa Calm     99% 0in /  0.0mm 0 W/m2
06:14 69.3 °F /  20.7 °C 68.9 °F /  20.5 °C 29.7in /  1007.1hPa Calm     99% 0in /  0.0mm 0 W/m2
06:19 69.1 °F /  20.6 °C 68.7 °F /  20.4 °C 29.7in /  1007.1hPa Calm     99% 0in /  0.0mm 0 W/m2
06:24 68.9 °F /  20.5 °C 68.5 °F /  20.3 °C 29.7in /  1007.1hPa Calm     99% 0in /  0.0mm 0 W/m2
06:29 68.7 °F /  20.4 °C 68.4 °F /  20.2 °C 29.7in /  1007.1hPa Calm     99% 0in /  0.0mm 0 W/m2
06:34 68.7 °F /  20.4 °C 68.4 °F /  20.2 °C 29.7in /  1007.1hPa Calm     99% 0in /  0.0mm 3 W/m2
06:39 68.7 °F /  20.4 °C 68.4 °F /  20.2 °C 29.7in /  1007.1hPa Calm     99% 0in /  0.0mm 6 W/m2
06:44 68.9 °F /  20.5 °C 68.5 °F /  20.3 °C 29.7in /  1007.1hPa Calm     99% 0in /  0.0mm 11 W/m2
06:49 69.1 °F /  20.6 °C 68.7 °F /  20.4 °C 29.7in /  1007.1hPa Calm     99% 0in /  0.0mm 20 W/m2
06:54 69.1 °F /  20.6 °C 68.7 °F /  20.4 °C 29.8in /  1007.5hPa Calm     99% 0in /  0.0mm 28 W/m2
06:59 69.1 °F /  20.6 °C 68.7 °F /  20.4 °C 29.7in /  1007.1hPa Calm     99% 0in /  0.0mm 39 W/m2
07:04 69.8 °F /  21 °C 69.3 °F /  20.7 °C 29.8in /  1007.5hPa Calm     99% 0in /  0.0mm 52 W/m2
07:09 70 °F /  21.1 °C 69.6 °F /  20.9 °C 29.7in /  1007.1hPa Calm     99% 0in /  0.0mm 66 W/m2
07:14 70 °F /  21.1 °C 69.6 °F /  20.9 °C 29.8in /  1007.5hPa Calm     99% 0in /  0.0mm 83 W/m2
07:19 70.2 °F /  21.2 °C 69.8 °F /  21 °C 29.8in /  1007.5hPa Calm     99% 0in /  0.0mm 94 W/m2
07:24 70.5 °F /  21.4 °C 70.3 °F /  21.3 °C 29.8in /  1007.5hPa Calm     99% 0in /  0.0mm 105 W/m2
07:29 70.9 °F /  21.6 °C 70.5 °F /  21.4 °C 29.8in /  1007.5hPa Calm     99% 0in /  0.0mm 100 W/m2
07:34 70.7 °F /  21.5 °C 70.3 °F /  21.3 °C 29.8in /  1007.5hPa Calm     99% 0in /  0.0mm 99 W/m2
07:39 70.7 °F /  21.5 °C 70.3 °F /  21.3 °C 29.8in /  1007.5hPa Calm     99% 0in /  0.0mm 90 W/m2
07:44 70.5 °F /  21.4 °C 70 °F /  21.1 °C 29.8in /  1007.5hPa Calm     99% 0in /  0.0mm 130 W/m2
07:49 70.2 °F /  21.2 °C 69.8 °F /  21 °C 29.8in /  1007.5hPa Calm     99% 0in /  0.0mm 158 W/m2
07:54 70.3 °F /  21.3 °C 70 °F /  21.1 °C 29.8in /  1007.5hPa Calm     99% 0in /  0.0mm 196 W/m2
07:59 70.7 °F /  21.5 °C 70.3 °F /  21.3 °C 29.8in /  1007.5hPa Calm     99% 0in /  0.0mm 209 W/m2
08:04 73 °F /  22.8 °C 72.3 °F /  22.4 °C 29.8in /  1007.5hPa Calm     97.9% 0in /  0.0mm 222 W/m2
08:09 75.4 °F /  24.1 °C 74.3 °F /  23.5 °C 29.8in /  1007.5hPa Calm     96.4% 0in /  0.0mm 233 W/m2
08:14 75.4 °F /  24.1 °C 74.7 °F /  23.7 °C 29.8in /  1007.5hPa Calm     97.3% 0in /  0.0mm 233 W/m2
08:19 75.4 °F /  24.1 °C 74.1 °F /  23.4 °C 29.8in /  1007.5hPa Calm     95.8% 0in /  0.0mm 238 W/m2
08:24 75.6 °F /  24.2 °C 74.5 °F /  23.6 °C 29.8in /  1007.5hPa Calm     96.6% 0in /  0.0mm 247 W/m2
08:29 75.6 °F /  24.2 °C 74.1 °F /  23.4 °C 29.8in /  1007.8hPa Calm     95.6% 0in /  0.0mm 254 W/m2
08:34 75.6 °F /  24.2 °C 73.9 °F /  23.3 °C 29.8in /  1007.5hPa Calm     94.6% 0in /  0.0mm 266 W/m2
08:39 75.7 °F /  24.3 °C 74.1 °F /  23.4 °C 29.8in /  1007.8hPa SSE 0.3mph /  0.5km/h 4.9mph /  7.9km/h 95% 0in /  0.0mm 312 W/m2
08:44 75.2 °F /  24 °C 74.5 °F /  23.6 °C 29.8in /  1007.5hPa SE 0.1mph /  0.2km/h 2.5mph /  4km/h 97.7% 0in /  0.0mm 284 W/m2
08:49 74.7 °F /  23.7 °C 73.9 °F /  23.3 °C 29.8in /  1007.5hPa Calm     97.7% 0in /  0.0mm 220 W/m2
08:54 74.7 °F /  23.7 °C 73.6 °F /  23.1 °C 29.8in /  1007.8hPa Calm     96.2% 0in /  0.0mm 131 W/m2
08:59 74.7 °F /  23.7 °C 73.8 °F /  23.2 °C 29.8in /  1007.5hPa Calm     96.7% 0in /  0.0mm 124 W/m2
09:04 74.3 °F /  23.5 °C 73.9 °F /  23.3 °C 29.8in /  1007.5hPa Calm     98.3% 0in /  0.0mm 197 W/m2
09:09 73.9 °F /  23.3 °C 72.9 °F /  22.7 °C 29.8in /  1007.5hPa Calm     96.7% 0in /  0.0mm 293 W/m2
09:14 73.9 °F /  23.3 °C 71.8 °F /  22.1 °C 29.8in /  1007.5hPa Calm     92.7% 0in /  0.0mm 308 W/m2
09:19 74.3 °F /  23.5 °C 71.1 °F /  21.7 °C 29.8in /  1007.5hPa Calm     89.3% 0in /  0.0mm 320 W/m2
09:24 76.1 °F /  24.5 °C 72.5 °F /  22.5 °C 29.8in /  1007.5hPa ESE 0.2mph /  0.4km/h 4.9mph /  7.9km/h 88.3% 0in /  0.0mm 331 W/m2
09:29 78.4 °F /  25.8 °C 74.8 °F /  23.8 °C 29.8in /  1007.5hPa SE 1.4mph /  2.3km/h 4.9mph /  7.9km/h 89% 0in /  0.0mm 338 W/m2
09:34 78.1 °F /  25.6 °C 73.8 °F /  23.2 °C 29.8in /  1007.5hPa Calm   2.5mph /  4km/h 86.6% 0in /  0.0mm 353 W/m2
09:39 78.1 °F /  25.6 °C 73.2 °F /  22.9 °C 29.8in /  1007.5hPa SE 0.2mph /  0.3km/h 4.9mph /  7.9km/h 85.1% 0in /  0.0mm 380 W/m2
09:44 78.4 °F /  25.8 °C 73.2 °F /  22.9 °C 29.8in /  1007.5hPa SSE 1.3mph /  2.1km/h 7.6mph /  12.2km/h 83.9% 0in /  0.0mm 383 W/m2
09:49 79 °F /  26.1 °C 73.8 °F /  23.2 °C 29.8in /  1007.5hPa SE 1.7mph /  2.8km/h 7.6mph /  12.2km/h 83.8% 0in /  0.0mm 396 W/m2
09:54 79 °F /  26.1 °C 73.9 °F /  23.3 °C 29.8in /  1007.8hPa SE 0.7mph /  1.2km/h 10.1mph /  16.3km/h 84.7% 0in /  0.0mm 403 W/m2
09:59 78.8 °F /  26 °C 73.9 °F /  23.3 °C 29.8in /  1007.8hPa SE 0.7mph /  1.2km/h 4.9mph /  7.9km/h 84.7% 0in /  0.0mm 236 W/m2
10:04 78.6 °F /  25.9 °C 73.4 °F /  23 °C 29.8in /  1007.5hPa South 2.4mph /  3.8km/h 7.6mph /  12.2km/h 84.2% 0in /  0.0mm 417 W/m2
10:09 78.6 °F /  25.9 °C 72.7 °F /  22.6 °C 29.8in /  1007.5hPa SSE 1.6mph /  2.6km/h 7.6mph /  12.2km/h 81.9% 0in /  0.0mm 430 W/m2
10:14 78.6 °F /  25.9 °C 72.9 °F /  22.7 °C 29.8in /  1007.5hPa SE 0.9mph /  1.5km/h 4.9mph /  7.9km/h 82.3% 0in /  0.0mm 283 W/m2
10:19 78.6 °F /  25.9 °C 73.2 °F /  22.9 °C 29.8in /  1007.5hPa SSE 1.6mph /  2.6km/h 7.6mph /  12.2km/h 83.3% 0in /  0.0mm 297 W/m2
10:24 78.3 °F /  25.7 °C 73.6 °F /  23.1 °C 29.8in /  1007.5hPa SSE 2.5mph /  4km/h 7.6mph /  12.2km/h 85.8% 0in /  0.0mm 230 W/m2
10:29 77.5 °F /  25.3 °C 72.3 °F /  22.4 °C 29.8in /  1007.5hPa South 2.5mph /  4.1km/h 7.6mph /  12.2km/h 84.2% 0in /  0.0mm 468 W/m2
10:34 77.5 °F /  25.3 °C 72 °F /  22.2 °C 29.8in /  1007.5hPa SSE 2.5mph /  4.1km/h 10.1mph /  16.3km/h 82.9% 0in /  0.0mm 479 W/m2
10:39 77.9 °F /  25.5 °C 72.5 °F /  22.5 °C 29.8in /  1007.5hPa SSE 1.6mph /  2.6km/h 10.1mph /  16.3km/h 83.8% 0in /  0.0mm 487 W/m2
10:44 77.9 °F /  25.5 °C 73 °F /  22.8 °C 29.8in /  1007.5hPa SE 2.2mph /  3.5km/h 7.6mph /  12.2km/h 85% 0in /  0.0mm 342 W/m2
10:49 78.1 °F /  25.6 °C 73.4 °F /  23 °C 29.8in /  1007.5hPa SSE 3.4mph /  5.5km/h 10.1mph /  16.3km/h 85.3% 0in /  0.0mm 418 W/m2
10:54 78.1 °F /  25.6 °C 73.8 °F /  23.2 °C 29.8in /  1007.5hPa South 2.4mph /  3.9km/h 10.1mph /  16.3km/h 86.6% 0in /  0.0mm 535 W/m2
10:59 78.1 °F /  25.6 °C 73.4 °F /  23 °C 29.8in /  1007.5hPa SSE 4.2mph /  6.7km/h 10.1mph /  16.3km/h 85.6% 0in /  0.0mm 523 W/m2
11:04 78.4 °F /  25.8 °C 74.1 °F /  23.4 °C 29.8in /  1007.5hPa SSE 4.5mph /  7.3km/h 10.1mph /  16.3km/h 86.8% 0in /  0.0mm 572 W/m2
11:09 79 °F /  26.1 °C 74.7 °F /  23.7 °C 29.8in /  1007.5hPa South 3.7mph /  6km/h 10.1mph /  16.3km/h 86.9% 0in /  0.0mm 554 W/m2
11:14 78.8 °F /  26 °C 74.8 °F /  23.8 °C 29.8in /  1007.5hPa SSE 3.1mph /  5km/h 10.1mph /  16.3km/h 87.6% 0in /  0.0mm 244 W/m2
11:19 78.8 °F /  26 °C 74.8 °F /  23.8 °C 29.8in /  1007.5hPa South 2.3mph /  3.7km/h 7.6mph /  12.2km/h 87.8% 0in /  0.0mm 232 W/m2
11:24 78.4 °F /  25.8 °C 74.8 °F /  23.8 °C 29.8in /  1007.5hPa South 4.1mph /  6.6km/h 12.5mph /  20.1km/h 88.7% 0in /  0.0mm 287 W/m2
11:29 77.2 °F /  25.1 °C 74.1 °F /  23.4 °C 29.8in /  1007.5hPa South 5.1mph /  8.2km/h 12.5mph /  20.1km/h 90.6% 0in /  0.0mm 207 W/m2
11:34 77.2 °F /  25.1 °C 74.1 °F /  23.4 °C 29.8in /  1007.5hPa SSE 3.1mph /  5km/h 10.1mph /  16.3km/h 90.6% 0in /  0.0mm 252 W/m2
11:39 77 °F /  25 °C 73.9 °F /  23.3 °C 29.8in /  1007.5hPa SSE 3.8mph /  6.1km/h 10.1mph /  16.3km/h 90.7% 0in /  0.0mm 257 W/m2
11:44 77.2 °F /  25.1 °C 73.8 °F /  23.2 °C 29.8in /  1007.5hPa SSE 4.8mph /  7.8km/h 10.1mph /  16.3km/h 89.7% 0in /  0.0mm 344 W/m2
11:49 77.7 °F /  25.4 °C 74.3 °F /  23.5 °C 29.8in /  1007.5hPa SSE 4.9mph /  7.9km/h 12.5mph /  20.1km/h 88.9% 0in /  0.0mm 314 W/m2
11:54 77.7 °F /  25.4 °C 74.3 °F /  23.5 °C 29.8in /  1007.5hPa SSE 5.3mph /  8.6km/h 10.1mph /  16.3km/h 89% 0in /  0.0mm 301 W/m2
11:59 77.5 °F /  25.3 °C 74.1 °F /  23.4 °C 29.8in /  1007.5hPa South 5.7mph /  9.1km/h 10.1mph /  16.3km/h 89% 0in /  0.0mm 311 W/m2
12:04 77.5 °F /  25.3 °C 74.1 °F /  23.4 °C 29.8in /  1007.5hPa South 4.7mph /  7.5km/h 12.5mph /  20.1km/h 88.9% 0in /  0.0mm 269 W/m2
12:09 77.4 °F /  25.2 °C 73.8 °F /  23.2 °C 29.8in /  1007.5hPa South 5.2mph /  8.3km/h 12.5mph /  20.1km/h 88.3% 0in /  0.0mm 261 W/m2
12:14 77.5 °F /  25.3 °C 73.8 °F /  23.2 °C 29.8in /  1007.5hPa South 5.3mph /  8.5km/h 10.1mph /  16.3km/h 87.9% 0in /  0.0mm 274 W/m2
12:19 77.5 °F /  25.3 °C 73.8 °F /  23.2 °C 29.7in /  1007.1hPa South 4.8mph /  7.7km/h 10.1mph /  16.3km/h 87.9% 0in /  0.0mm 272 W/m2
12:24 77.5 °F /  25.3 °C 73.8 °F /  23.2 °C 29.8in /  1007.5hPa SSE 5.1mph /  8.2km/h 10.1mph /  16.3km/h 87.8% 0in /  0.0mm 347 W/m2
12:29 78.1 °F /  25.6 °C 74.3 °F /  23.5 °C 29.8in /  1007.5hPa South 4.8mph /  7.7km/h 10.1mph /  16.3km/h 88.4% 0in /  0.0mm 333 W/m2
12:34 78.1 °F /  25.6 °C 74.3 °F /  23.5 °C 29.7in /  1007.1hPa SSE 6.6mph /  10.6km/h 12.5mph /  20.1km/h 88.3% 0in /  0.0mm 512 W/m2
12:39 78.3 °F /  25.7 °C 74.1 °F /  23.4 °C 29.7in /  1007.1hPa SSE 4.5mph /  7.2km/h 12.5mph /  20.1km/h 87.4% 0in /  0.0mm 391 W/m2
12:44 78.3 °F /  25.7 °C 74.3 °F /  23.5 °C 29.7in /  1006.8hPa SSE 4.9mph /  7.9km/h 10.1mph /  16.3km/h 87.1% 0in /  0.0mm 436 W/m2
12:49 79.3 °F /  26.3 °C 75.2 °F /  24 °C 29.7in /  1007.1hPa SSE 6.8mph /  11km/h 15mph /  24.1km/h 86.8% 0in /  0.0mm 634 W/m2
12:54 79.3 °F /  26.3 °C 75 °F /  23.9 °C 29.7in /  1006.8hPa SSE 5mph /  8.1km/h 12.5mph /  20.1km/h 86.7% 0in /  0.0mm 659 W/m2
12:59 79.5 °F /  26.4 °C 74.8 °F /  23.8 °C 29.7in /  1007.1hPa SSE 5.4mph /  8.7km/h 12.5mph /  20.1km/h 85.5% 0in /  0.0mm 623 W/m2
13:04 79.7 °F /  26.5 °C 74.7 °F /  23.7 °C 29.7in /  1006.8hPa SSE 6.2mph /  9.9km/h 15mph /  24.1km/h 84.2% 0in /  0.0mm 678 W/m2
13:09 81.7 °F /  27.6 °C 76.3 °F /  24.6 °C 29.7in /  1006.8hPa SSE 5.9mph /  9.5km/h 12.5mph /  20.1km/h 83.8% 0in /  0.0mm 653 W/m2
13:14 81.7 °F /  27.6 °C 76.3 °F /  24.6 °C 29.7in /  1006.8hPa South 5.6mph /  9km/h 15mph /  24.1km/h 84% 0in /  0.0mm 662 W/m2
13:19 81.7 °F /  27.6 °C 75.7 °F /  24.3 °C 29.7in /  1006.4hPa South 2.8mph /  4.5km/h 12.5mph /  20.1km/h 82.8% 0in /  0.0mm 349 W/m2
13:24 81.7 °F /  27.6 °C 76.1 °F /  24.5 °C 29.7in /  1006.4hPa South 4.9mph /  7.9km/h 12.5mph /  20.1km/h 83.6% 0in /  0.0mm 627 W/m2
13:29 81.5 °F /  27.5 °C 75.7 °F /  24.3 °C 29.7in /  1006.4hPa South 4.5mph /  7.3km/h 12.5mph /  20.1km/h 82.8% 0in /  0.0mm 589 W/m2
13:34 81.5 °F /  27.5 °C 75.9 °F /  24.4 °C 29.7in /  1006.4hPa SSE 4.9mph /  7.9km/h 12.5mph /  20.1km/h 83% 0in /  0.0mm 681 W/m2
13:39 81.3 °F /  27.4 °C 76.1 °F /  24.5 °C 29.7in /  1006.8hPa SSE 5.8mph /  9.4km/h 15mph /  24.1km/h 83.8% 0in /  0.0mm 527 W/m2
13:44 81.1 °F /  27.3 °C 76.1 °F /  24.5 °C 29.7in /  1006.8hPa South 6mph /  9.7km/h 15mph /  24.1km/h 84.4% 0in /  0.0mm 596 W/m2
13:49 80.2 °F /  26.8 °C 75.2 °F /  24 °C 29.7in /  1006.4hPa South 6.4mph /  10.3km/h 15mph /  24.1km/h 84.6% 0in /  0.0mm 571 W/m2
13:54 80.2 °F /  26.8 °C 74.5 °F /  23.6 °C 29.7in /  1006.4hPa South 6.2mph /  9.9km/h 12.5mph /  20.1km/h 82.8% 0in /  0.0mm 574 W/m2
13:59 80.4 °F /  26.9 °C 74.5 °F /  23.6 °C 29.7in /  1006.4hPa SSE 5.5mph /  8.8km/h 12.5mph /  20.1km/h 81.6% 0in /  0.0mm 582 W/m2
14:04 81 °F /  27.2 °C 74.8 °F /  23.8 °C 29.7in /  1006.4hPa South 6.4mph /  10.3km/h 12.5mph /  20.1km/h 81.7% 0in /  0.0mm 552 W/m2
14:09 82.4 °F /  28 °C 75.9 °F /  24.4 °C 29.7in /  1006.4hPa SSE 5.8mph /  9.3km/h 12.5mph /  20.1km/h 81.2% 0in /  0.0mm 585 W/m2
14:14 82.6 °F /  28.1 °C 76.3 °F /  24.6 °C 29.7in /  1006.4hPa South 3.5mph /  5.6km/h 12.5mph /  20.1km/h 81.3% 0in /  0.0mm 610 W/m2
14:19 82.8 °F /  28.2 °C 75.9 °F /  24.4 °C 29.7in /  1006.4hPa South 3.7mph /  6km/h 12.5mph /  20.1km/h 80.2% 0in /  0.0mm 564 W/m2
14:24 82.8 °F /  28.2 °C 76.5 °F /  24.7 °C 29.7in /  1006.1hPa SSE 5.3mph /  8.5km/h 12.5mph /  20.1km/h 81.4% 0in /  0.0mm 580 W/m2
14:29 81.9 °F /  27.7 °C 75.9 °F /  24.4 °C 29.7in /  1006.1hPa SSW 5.3mph /  8.6km/h 15mph /  24.1km/h 82.9% 0in /  0.0mm 499 W/m2
14:34 81.7 °F /  27.6 °C 75.9 °F /  24.4 °C 29.7in /  1006.1hPa South 4.9mph /  7.9km/h 15mph /  24.1km/h 83.2% 0in /  0.0mm 565 W/m2
14:39 81.7 °F /  27.6 °C 75.9 °F /  24.4 °C 29.7in /  1005.8hPa South 5.3mph /  8.5km/h 15mph /  24.1km/h 83% 0in /  0.0mm 534 W/m2
14:44 81.9 °F /  27.7 °C 75.9 °F /  24.4 °C 29.7in /  1005.8hPa SSE 5.5mph /  8.8km/h 12.5mph /  20.1km/h 82.3% 0in /  0.0mm 548 W/m2
14:49 82.6 °F /  28.1 °C 76.6 °F /  24.8 °C 29.7in /  1005.8hPa SSE 5.6mph /  9km/h 12.5mph /  20.1km/h 82.6% 0in /  0.0mm 551 W/m2
14:54 82.8 °F /  28.2 °C 77.2 °F /  25.1 °C 29.7in /  1005.8hPa SSE 5.8mph /  9.3km/h 12.5mph /  20.1km/h 83.4% 0in /  0.0mm 538 W/m2
14:59 82.8 °F /  28.2 °C 77 °F /  25 °C 29.7in /  1005.8hPa SSE 5mph /  8.1km/h 12.5mph /  20.1km/h 83.1% 0in /  0.0mm 527 W/m2
15:04 82.8 °F /  28.2 °C 77 °F /  25 °C 29.7in /  1005.8hPa South 6.2mph /  9.9km/h 12.5mph /  20.1km/h 83.2% 0in /  0.0mm 527 W/m2
15:09 82.8 °F /  28.2 °C 77.4 °F /  25.2 °C 29.7in /  1005.8hPa South 7.1mph /  11.5km/h 15mph /  24.1km/h 83.9% 0in /  0.0mm 542 W/m2
15:14 82.8 °F /  28.2 °C 77.4 °F /  25.2 °C 29.7in /  1005.8hPa South 5.8mph /  9.4km/h 12.5mph /  20.1km/h 83.8% 0in /  0.0mm 538 W/m2
15:19 82.6 °F /  28.1 °C 77.2 °F /  25.1 °C 29.7in /  1005.8hPa South 7mph /  11.3km/h 12.5mph /  20.1km/h 84% 0in /  0.0mm 529 W/m2
15:24 82.6 °F /  28.1 °C 76.6 °F /  24.8 °C 29.7in /  1005.4hPa South 5.5mph /  8.9km/h 12.5mph /  20.1km/h 82.2% 0in /  0.0mm 516 W/m2
15:29 83.3 °F /  28.5 °C 77 °F /  25 °C 29.7in /  1005.8hPa SSE 5.2mph /  8.3km/h 12.5mph /  20.1km/h 81.8% 0in /  0.0mm 509 W/m2
15:34 83.7 °F /  28.7 °C 77.4 °F /  25.2 °C 29.7in /  1005.8hPa South 5.9mph /  9.5km/h 12.5mph /  20.1km/h 81.8% 0in /  0.0mm 509 W/m2
15:39 83.7 °F /  28.7 °C 77.4 °F /  25.2 °C 29.7in /  1005.4hPa South 6.3mph /  10.1km/h 15mph /  24.1km/h 81.7% 0in /  0.0mm 506 W/m2
15:44 83.7 °F /  28.7 °C 77.2 °F /  25.1 °C 29.7in /  1005.4hPa South 4mph /  6.4km/h 12.5mph /  20.1km/h 80.8% 0in /  0.0mm 509 W/m2
15:49 83.8 °F /  28.8 °C 77.4 °F /  25.2 °C 29.7in /  1005.4hPa South 4mph /  6.5km/h 10.1mph /  16.3km/h 80.9% 0in /  0.0mm 505 W/m2
15:54 84 °F /  28.9 °C 77.4 °F /  25.2 °C 29.7in /  1005.4hPa South 6.3mph /  10.2km/h 15mph /  24.1km/h 80.8% 0in /  0.0mm 502 W/m2
15:59 83.8 °F /  28.8 °C 77.7 °F /  25.4 °C 29.7in /  1005.4hPa South 6.4mph /  10.3km/h 15mph /  24.1km/h 81.7% 0in /  0.0mm 496 W/m2
16:04 84 °F /  28.9 °C 77.4 °F /  25.2 °C 29.7in /  1005.1hPa SSE 4.6mph /  7.4km/h 12.5mph /  20.1km/h 80.8% 0in /  0.0mm 492 W/m2
16:09 84 °F /  28.9 °C 77.4 °F /  25.2 °C 29.7in /  1005.1hPa South 4.8mph /  7.8km/h 12.5mph /  20.1km/h 80.6% 0in /  0.0mm 491 W/m2
16:14 84.2 °F /  29 °C 77.5 °F /  25.3 °C 29.7in /  1004.7hPa South 4.2mph /  6.8km/h 10.1mph /  16.3km/h 80.4% 0in /  0.0mm 490 W/m2
16:19 84.2 °F /  29 °C 77.9 °F /  25.5 °C 29.8in /  1008.1hPa SE 7.8mph /  12.6km/h 12.5mph /  20.1km/h 81.7% 0in /  0.0mm 486 W/m2
16:24 84 °F /  28.9 °C 77.7 °F /  25.4 °C 29.7in /  1004.4hPa South 5.7mph /  9.2km/h 15mph /  24.1km/h 81.4% 0in /  0.0mm 482 W/m2
16:29 83.8 °F /  28.8 °C 77.5 °F /  25.3 °C 29.7in /  1004.4hPa South 5.8mph /  9.4km/h 15mph /  24.1km/h 81.3% 0in /  0.0mm 479 W/m2
16:34 83.8 °F /  28.8 °C 77.2 °F /  25.1 °C 29.7in /  1004.4hPa South 3.2mph /  5.1km/h 10.1mph /  16.3km/h 80.7% 0in /  0.0mm 474 W/m2
16:39 84 °F /  28.9 °C 77.2 °F /  25.1 °C 29.7in /  1004.4hPa South 5.8mph /  9.4km/h 10.1mph /  16.3km/h 80.2% 0in /  0.0mm 471 W/m2
16:44 84.2 °F /  29 °C 77.5 °F /  25.3 °C 29.7in /  1004.4hPa SSE 4.4mph /  7.1km/h 12.5mph /  20.1km/h 80.7% 0in /  0.0mm 463 W/m2
16:49 84.6 °F /  29.2 °C 78.1 °F /  25.6 °C 29.7in /  1004.1hPa South 4.6mph /  7.4km/h 12.5mph /  20.1km/h 81.2% 0in /  0.0mm 457 W/m2
16:54 84.7 °F /  29.3 °C 78.3 °F /  25.7 °C 29.7in /  1004.1hPa South 5mph /  8km/h 12.5mph /  20.1km/h 81.2% 0in /  0.0mm 453 W/m2
16:59 84.6 °F /  29.2 °C 78.3 °F /  25.7 °C 29.7in /  1004.1hPa South 5mph /  8.1km/h 15mph /  24.1km/h 81.3% 0in /  0.0mm 450 W/m2
17:04 84.4 °F /  29.1 °C 78.3 °F /  25.7 °C 29.7in /  1004.1hPa SSE 6.3mph /  10.2km/h 15mph /  24.1km/h 81.9% 0in /  0.0mm 443 W/m2
17:09 83.5 °F /  28.6 °C 77.7 °F /  25.4 °C 29.6in /  1003.7hPa South 6.9mph /  11.1km/h 12.5mph /  20.1km/h 82.6% 0in /  0.0mm 432 W/m2
17:14 83.3 °F /  28.5 °C 77.2 °F /  25.1 °C 29.6in /  1003.7hPa South 4.8mph /  7.7km/h 17.4mph /  28km/h 82.2% 0in /  0.0mm 430 W/m2
17:19 83.3 °F /  28.5 °C 77.4 °F /  25.2 °C 29.6in /  1003.4hPa South 6.8mph /  10.9km/h 17.4mph /  28km/h 82.3% 0in /  0.0mm 429 W/m2
17:24 83.3 °F /  28.5 °C 77.2 °F /  25.1 °C 29.6in /  1003.7hPa South 6.2mph /  10km/h 12.5mph /  20.1km/h 82% 0in /  0.0mm 423 W/m2
17:29 83.5 °F /  28.6 °C 77.2 °F /  25.1 °C 29.6in /  1003.7hPa South 3.7mph /  6km/h 12.5mph /  20.1km/h 81.7% 0in /  0.0mm 419 W/m2
17:34 83.5 °F /  28.6 °C 77.2 °F /  25.1 °C 29.6in /  1003.7hPa South 5.8mph /  9.4km/h 15mph /  24.1km/h 81.6% 0in /  0.0mm 410 W/m2
17:39 83.3 °F /  28.5 °C 77 °F /  25 °C 29.6in /  1003.4hPa South 7.1mph /  11.4km/h 15mph /  24.1km/h 81.7% 0in /  0.0mm 403 W/m2
17:44 83.3 °F /  28.5 °C 77 °F /  25 °C 29.6in /  1003.4hPa SSE 5.8mph /  9.3km/h 12.5mph /  20.1km/h 81.3% 0in /  0.0mm 400 W/m2
17:49 82.9 °F /  28.3 °C 76.6 °F /  24.8 °C 29.6in /  1003.4hPa South 7.3mph /  11.8km/h 15mph /  24.1km/h 81.7% 0in /  0.0mm 389 W/m2
17:54 82.6 °F /  28.1 °C 76.8 °F /  24.9 °C 29.6in /  1003.4hPa South 6.9mph /  11.1km/h 12.5mph /  20.1km/h 82.9% 0in /  0.0mm 382 W/m2
17:59 82.6 °F /  28.1 °C 76.6 °F /  24.8 °C 29.6in /  1003.4hPa South 5.5mph /  8.8km/h 17.4mph /  28km/h 82.2% 0in /  0.0mm 370 W/m2
18:04 82.6 °F /  28.1 °C 76.8 °F /  24.9 °C 29.6in /  1003.4hPa SSE 5.3mph /  8.6km/h 17.4mph /  28km/h 83% 0in /  0.0mm 353 W/m2
18:09 82 °F /  27.8 °C 76.3 °F /  24.6 °C 29.6in /  1003.4hPa South 6.2mph /  10km/h 15mph /  24.1km/h 83% 0in /  0.0mm 302 W/m2
18:14 81.7 °F /  27.6 °C 75.9 °F /  24.4 °C 29.6in /  1003.4hPa South 5.3mph /  8.5km/h 12.5mph /  20.1km/h 83% 0in /  0.0mm 336 W/m2
18:19 81.5 °F /  27.5 °C 76.1 °F /  24.5 °C 29.6in /  1003.4hPa South 7.3mph /  11.7km/h 15mph /  24.1km/h 83.6% 0in /  0.0mm 332 W/m2
18:24 81.5 °F /  27.5 °C 76.3 °F /  24.6 °C 29.6in /  1003.4hPa South 7mph /  11.3km/h 15mph /  24.1km/h 84% 0in /  0.0mm 97 W/m2
18:29 81 °F /  27.2 °C 76.1 °F /  24.5 °C 29.6in /  1003.4hPa South 5.6mph /  9km/h 12.5mph /  20.1km/h 85% 0in /  0.0mm 91 W/m2
18:34 80.4 °F /  26.9 °C 75.6 °F /  24.2 °C 29.6in /  1003.4hPa South 6.4mph /  10.3km/h 12.5mph /  20.1km/h 85.1% 0in /  0.0mm 87 W/m2
18:39 80.4 °F /  26.9 °C 75.9 °F /  24.4 °C 29.6in /  1003.4hPa South 6.5mph /  10.4km/h 15mph /  24.1km/h 86.1% 0in /  0.0mm 84 W/m2
18:44 80.2 °F /  26.8 °C 76.1 °F /  24.5 °C 29.6in /  1003.4hPa South 5.2mph /  8.3km/h 10.1mph /  16.3km/h 87% 0in /  0.0mm 82 W/m2
18:49 79.7 °F /  26.5 °C 75.6 °F /  24.2 °C 29.6in /  1003.4hPa South 4.5mph /  7.3km/h 12.5mph /  20.1km/h 87% 0in /  0.0mm 80 W/m2
18:54 79.2 °F /  26.2 °C 75.4 °F /  24.1 °C 29.6in /  1003.4hPa SSE 5.8mph /  9.4km/h 15mph /  24.1km/h 88% 0in /  0.0mm 77 W/m2
18:59 79.2 °F /  26.2 °C 75.4 °F /  24.1 °C 29.6in /  1003.4hPa South 4.6mph /  7.4km/h 12.5mph /  20.1km/h 88% 0in /  0.0mm 74 W/m2
19:04 79.2 °F /  26.2 °C 75.4 °F /  24.1 °C 29.6in /  1003.4hPa South 3.1mph /  5km/h 10.1mph /  16.3km/h 88% 0in /  0.0mm 71 W/m2
19:09 78.8 °F /  26 °C 75.2 °F /  24 °C 29.6in /  1003.4hPa South 4.1mph /  6.6km/h 12.5mph /  20.1km/h 88.7% 0in /  0.0mm 68 W/m2
19:14 78.3 °F /  25.7 °C 74.7 °F /  23.7 °C 29.6in /  1003.4hPa South 4.6mph /  7.4km/h 12.5mph /  20.1km/h 89.1% 0in /  0.0mm 65 W/m2
19:19 78.1 °F /  25.6 °C 74.8 °F /  23.8 °C 29.6in /  1003.4hPa South 5.8mph /  9.4km/h 12.5mph /  20.1km/h 90% 0in /  0.0mm 62 W/m2
19:24 78.1 °F /  25.6 °C 74.8 °F /  23.8 °C 29.6in /  1003.7hPa South 5.2mph /  8.3km/h 12.5mph /  20.1km/h 90.3% 0in /  0.0mm 60 W/m2
19:29 77.7 °F /  25.4 °C 74.8 °F /  23.8 °C 29.6in /  1003.7hPa South 3.6mph /  5.8km/h 10.1mph /  16.3km/h 91% 0in /  0.0mm 57 W/m2
19:34 77.2 °F /  25.1 °C 74.3 °F /  23.5 °C 29.7in /  1004.1hPa South 3.5mph /  5.7km/h 12.5mph /  20.1km/h 91.2% 0in /  0.0mm 53 W/m2
19:39 77 °F /  25 °C 74.5 °F /  23.6 °C 29.7in /  1004.1hPa South 3.9mph /  6.3km/h 12.5mph /  20.1km/h 92% 0in /  0.0mm 51 W/m2
19:44 77 °F /  25 °C 74.7 °F /  23.7 °C 29.7in /  1004.1hPa South 2.2mph /  3.6km/h 10.1mph /  16.3km/h 92.6% 0in /  0.0mm 47 W/m2
19:49 76.8 °F /  24.9 °C 74.7 °F /  23.7 °C 29.7in /  1004.1hPa South 0.6mph /  1km/h 4.9mph /  7.9km/h 93% 0in /  0.0mm 44 W/m2
19:54 76.3 °F /  24.6 °C 74.3 °F /  23.5 °C 29.7in /  1004.1hPa SSE 1mph /  1.6km/h 4.9mph /  7.9km/h 93.3% 0in /  0.0mm 40 W/m2
19:59 76.3 °F /  24.6 °C 74.5 °F /  23.6 °C 0in /  0.0hPa South 1.7mph /  2.8km/h 4.9mph /  7.9km/h 94% 0in /  0.0mm 36 W/m2
20:04 76.3 °F /  24.6 °C 74.7 °F /  23.7 °C 0in /  0.0hPa South 1.4mph /  2.3km/h 4.9mph /  7.9km/h 94.9% 0in /  0.0mm 31 W/m2
20:09 75.9 °F /  24.4 °C 74.5 °F /  23.6 °C 0in /  0.0hPa South 1.6mph /  2.5km/h 7.6mph /  12.2km/h 95.6% 0in /  0.0mm 22 W/m2
20:14 75.2 °F /  24 °C 73.9 °F /  23.3 °C 29.7in /  1004.1hPa South 1.9mph /  3km/h 7.6mph /  12.2km/h 96% 0in /  0.0mm 13 W/m2
20:19 75.2 °F /  24 °C 73.9 °F /  23.3 °C 29.7in /  1004.4hPa SSW 0.9mph /  1.4km/h 4.9mph /  7.9km/h 96% 0in /  0.0mm 10 W/m2
20:24 75.2 °F /  24 °C 73.9 °F /  23.3 °C 29.7in /  1004.4hPa Calm   2.5mph /  4km/h 96% 0in /  0.0mm 8 W/m2
20:29 75 °F /  23.9 °C 74.1 °F /  23.4 °C 29.7in /  1004.4hPa Calm     97% 0in /  0.0mm 6 W/m2
20:34 74.3 °F /  23.5 °C 73.6 °F /  23.1 °C 29.7in /  1004.4hPa Calm     97.2% 0in /  0.0mm 5 W/m2
20:39 74.3 °F /  23.5 °C 73.8 °F /  23.2 °C 29.7in /  1004.4hPa Calm     98% 0in /  0.0mm 2 W/m2
20:44 74.1 °F /  23.4 °C 73.8 °F /  23.2 °C 29.7in /  1004.4hPa Calm     99% 0in /  0.0mm 0 W/m2
20:49 73.8 °F /  23.2 °C 73.6 °F /  23.1 °C 29.7in /  1004.4hPa Calm     99% 0in /  0.0mm 0 W/m2
20:54 73 °F /  22.8 °C 72.7 °F /  22.6 °C 29.7in /  1004.4hPa South 0.7mph /  1.2km/h 4.9mph /  7.9km/h 99% 0in /  0.0mm 0 W/m2
20:59 73.2 °F /  22.9 °C 72.9 °F /  22.7 °C 29.7in /  1004.4hPa South 0.5mph /  0.8km/h 4.9mph /  7.9km/h 98.8% 0in /  0.0mm 0 W/m2
21:04 73.2 °F /  22.9 °C 72.9 °F /  22.7 °C 29.7in /  1004.4hPa Calm   4.9mph /  7.9km/h 98.4% 0in /  0.0mm 0 W/m2
21:09 73.2 °F /  22.9 °C 72.9 °F /  22.7 °C 29.7in /  1004.4hPa Calm     99% 0in /  0.0mm 0 W/m2
21:14 72.9 °F /  22.7 °C 72 °F /  22.2 °C 29.7in /  1004.4hPa Calm     96.9% 0in /  0.0mm 0 W/m2
21:19 73 °F /  22.8 °C 71.8 °F /  22.1 °C 29.7in /  1004.4hPa Calm   2.5mph /  4km/h 96.2% 0in /  0.0mm 0 W/m2
21:24 73 °F /  22.8 °C 72.7 °F /  22.6 °C 29.7in /  1004.4hPa Calm     99% 0in /  0.0mm 0 W/m2
21:29 72.9 °F /  22.7 °C 72.5 °F /  22.5 °C 29.7in /  1004.4hPa Calm     99% 0in /  0.0mm 0 W/m2
21:34 72.1 °F /  22.3 °C 71.1 °F /  21.7 °C 29.7in /  1004.4hPa Calm     96.3% 0in /  0.0mm 0 W/m2
21:39 72.1 °F /  22.3 °C 70.3 °F /  21.3 °C 29.7in /  1004.4hPa South 0.7mph /  1.2km/h 4.9mph /  7.9km/h 94.1% 0in /  0.0mm 0 W/m2
21:44 72.3 °F /  22.4 °C 70.3 °F /  21.3 °C 29.7in /  1004.4hPa South 0.4mph /  0.6km/h 4.9mph /  7.9km/h 93.2% 0in /  0.0mm 0 W/m2
21:49 72.7 °F /  22.6 °C 70.2 °F /  21.2 °C 29.7in /  1004.7hPa SSW 0.1mph /  0.2km/h 2.5mph /  4km/h 92% 0in /  0.0mm 0 W/m2
21:54 73.2 °F /  22.9 °C 71.1 °F /  21.7 °C 29.7in /  1004.4hPa Calm     92.9% 0in /  0.0mm 0 W/m2
21:59 73.2 °F /  22.9 °C 71.2 °F /  21.8 °C 29.7in /  1004.7hPa Calm   2.5mph /  4km/h 93.3% 0in /  0.0mm 0 W/m2
22:04 73.2 °F /  22.9 °C 71.1 °F /  21.7 °C 29.7in /  1004.7hPa Calm   2.5mph /  4km/h 93% 0in /  0.0mm 0 W/m2
22:09 73 °F /  22.8 °C 71.4 °F /  21.9 °C 29.7in /  1004.7hPa Calm     94.9% 0in /  0.0mm 0 W/m2
22:14 72.9 °F /  22.7 °C 71.4 °F /  21.9 °C 29.7in /  1005.1hPa South 0.2mph /  0.4km/h 2.5mph /  4km/h 95% 0in /  0.0mm 0 W/m2
22:19 72.9 °F /  22.7 °C 71.6 °F /  22 °C 29.7in /  1005.1hPa Calm     96.1% 0in /  0.0mm 0 W/m2
22:24 72.7 °F /  22.6 °C 71.8 °F /  22.1 °C 29.7in /  1005.1hPa South 0.4mph /  0.6km/h 4.9mph /  7.9km/h 97% 0in /  0.0mm 0 W/m2
22:29 72.7 °F /  22.6 °C 71.4 °F /  21.9 °C 29.7in /  1005.1hPa South 0.7mph /  1.2km/h 4.9mph /  7.9km/h 96% 0in /  0.0mm 0 W/m2
22:34 72.7 °F /  22.6 °C 71.4 °F /  21.9 °C 29.7in /  1005.1hPa South 1.1mph /  1.8km/h 4.9mph /  7.9km/h 96% 0in /  0.0mm 0 W/m2
22:39 72.7 °F /  22.6 °C 71.4 °F /  21.9 °C 29.7in /  1004.7hPa South 2.4mph /  3.9km/h 7.6mph /  12.2km/h 96% 0in /  0.0mm 0 W/m2
22:44 72.7 °F /  22.6 °C 71.2 °F /  21.8 °C 29.7in /  1005.1hPa South 1mph /  1.6km/h 7.6mph /  12.2km/h 95.6% 0in /  0.0mm 0 W/m2
22:49 72.7 °F /  22.6 °C 71.2 °F /  21.8 °C 29.7in /  1005.1hPa SSE 1.6mph /  2.6km/h 7.6mph /  12.2km/h 95% 0in /  0.0mm 0 W/m2
22:54 72.7 °F /  22.6 °C 71.1 °F /  21.7 °C 29.7in /  1005.4hPa South 2.3mph /  3.7km/h 7.6mph /  12.2km/h 94.7% 0in /  0.0mm 0 W/m2
22:59 72.7 °F /  22.6 °C 70.9 °F /  21.6 °C 29.7in /  1005.1hPa South 3mph /  4.8km/h 10.1mph /  16.3km/h 94% 0in /  0.0mm 0 W/m2
23:04 72.9 °F /  22.7 °C 71.1 °F /  21.7 °C 29.7in /  1005.4hPa SSE 3.5mph /  5.6km/h 7.6mph /  12.2km/h 94% 0in /  0.0mm 0 W/m2
23:09 72.9 °F /  22.7 °C 70.9 °F /  21.6 °C 29.7in /  1005.1hPa South 2.1mph /  3.4km/h 7.6mph /  12.2km/h 93.6% 0in /  0.0mm 0 W/m2
23:14 72.9 °F /  22.7 °C 70.7 °F /  21.5 °C 29.7in /  1005.4hPa South 3.6mph /  5.8km/h 10.1mph /  16.3km/h 93.1% 0in /  0.0mm 0 W/m2
23:19 72.9 °F /  22.7 °C 70.7 °F /  21.5 °C 29.7in /  1005.4hPa South 2.9mph /  4.7km/h 7.6mph /  12.2km/h 92.9% 0in /  0.0mm 0 W/m2
23:24 72.9 °F /  22.7 °C 70.7 °F /  21.5 °C 29.7in /  1005.8hPa SSW 3.7mph /  5.9km/h 10.1mph /  16.3km/h 93% 0in /  0.0mm 0 W/m2
23:29 72.9 °F /  22.7 °C 70.7 °F /  21.5 °C 29.7in /  1005.8hPa South 3.4mph /  5.5km/h 10.1mph /  16.3km/h 93% 0in /  0.0mm 0 W/m2
23:34 72.7 °F /  22.6 °C 70.5 °F /  21.4 °C 29.7in /  1005.8hPa South 2.8mph /  4.5km/h 7.6mph /  12.2km/h 93% 0in /  0.0mm 0 W/m2
23:39 72.7 °F /  22.6 °C 70.7 °F /  21.5 °C 29.7in /  1005.8hPa South 1.2mph /  1.9km/h 7.6mph /  12.2km/h 93.6% 0in /  0.0mm 0 W/m2
23:44 72.7 °F /  22.6 °C 70.9 °F /  21.6 °C 29.7in /  1005.8hPa South 0.9mph /  1.5km/h 4.9mph /  7.9km/h 94% 0in /  0.0mm 0 W/m2
23:49 72.7 °F /  22.6 °C 70.9 °F /  21.6 °C 29.7in /  1005.8hPa South 1.9mph /  3km/h 7.6mph /  12.2km/h 94% 0in /  0.0mm 0 W/m2
23:54 72.7 °F /  22.6 °C 70.9 °F /  21.6 °C 29.7in /  1005.8hPa South 1.5mph /  2.4km/h 7.6mph /  12.2km/h 94% 0in /  0.0mm 0 W/m2
23:59 72.7 °F /  22.6 °C 70.9 °F /  21.6 °C 29.7in /  1005.8hPa South 1.1mph /  1.8km/h 10.1mph /  16.3km/h 94% 0in /  0.0mm 0 W/m2
Juneau County Weather
Compliments of Weather Underground - 2 mb